Airfield :
LOGIN :

Register | Disclaimer

   EN    FR    IT 

 










Legend :    VFR   Marginal VFR   IFR   Intensive IFR   Very Intensive IFR
Visi :
Ceiling :
>= 8 km
>= 3000ft
5 to 8 km
1000 to 3000 ft
1500m to 5 km
500 to 1000 ft
800 to 1500m
200 to 500 ft
< 800m
< 200 ft
Symbols :   Thunderstorms  Fog  Heavy snow  Heavy precipitations  Wind > 20 kt
SIGMETs :     Misc.  Thunderstorms  Icing  Turbulence  Mountain Waves  Volcanic Ashes






- Airport Elevation : 0 ft


ENSL - Sleipner A Platform

CURRENT METAR :
  • 170520Z AUTO 36014KT 9999NDV BKN028/// 08/02 Q1009 W06/S4

EXPIRED METARs :
  • 170450Z AUTO 36015KT 9999NDV BKN025/// 08/02 Q1008 W06/S4
  • 170420Z AUTO 35016KT 9999NDV FEW025/// BKN100/// 08/02 Q1008 W06/S3
  • 170350Z AUTO 35018KT 9999NDV SCT024/// BKN120/// BKN150/// 08/02 Q1008 W06/S3
  • 170320Z AUTO 34018KT 9999NDV FEW025/// BKN110/// BKN150/// 08/02 Q1008 W06/S3
  • 170250Z AUTO 35018KT 9999NDV SCT029/// BKN110/// BKN140/// 08/02 Q1007 W06/S3

Expired Forecast.



MET'MAP, your aeronautical weather chart ! - Copyright ORBIFLY December 2007 - Disclaimer

ORBIFLY MET'MAP TEAM :

Programming & Development : Alexandra Zaïnal
Concept & Development : Baudouin d'Aumeries
Co-Development & Prog : Marc-Olivier Méhu
Technical & hardware support : Manuel Goepfert

Contact : metmap@orbifly.com




SOURCES & CREDITS :

   NOAA